Time;durP1;ratioP1;P1;durP2;ratioP2;P2;SDS_P1;SDS_P2;PMS_P1;PMS_P2;Temp;Humidity;BMP_temperature;BMP_pressure;BME280_temperature;BME280_humidity;BME280_pressure;Samples;Min_cycle;Max_cycle;Signal;HPM_P1;HPM_P2
2021/05/31 00:02:18;;;;;;;10.43;4.38;;;;;;;;;;5068408;28;20539;-78
2021/05/31 00:04:47;;;;;;;9.88;4.35;;;;;;;;;;5061863;28;20052;-77
2021/05/31 00:07:20;;;;;;;11.57;4.70;;;;;;;;;;5073204;28;20063;-77
2021/05/31 00:09:51;;;;;;;7.65;4.05;;;;;;;;;;5068860;28;20049;-78
2021/05/31 00:12:19;;;;;;;10.25;4.20;;;;;;;;;;5061205;28;20052;-78
2021/05/31 00:14:46;;;;;;;8.30;4.38;;;;;;;;;;5067961;28;20131;-83
2021/05/31 00:17:14;;;;;;;8.57;4.47;;;;;;;;;;5072246;28;20052;-83
2021/05/31 00:19:41;;;;;;;8.75;4.95;;;;;;;;;;5059479;28;20049;-83
2021/05/31 00:22:10;;;;;;;10.07;4.55;;;;;;;;;;5071160;28;20123;-83
2021/05/31 00:24:37;;;;;;;10.15;4.53;;;;;;;;;;5067868;28;20152;-84
2021/05/31 00:27:05;;;;;;;10.20;4.32;;;;;;;;;;5061176;28;20528;-84
2021/05/31 00:29:35;;;;;;;13.77;4.15;;;;;;;;;;5051578;28;20127;-84
2021/05/31 00:32:04;;;;;;;8.07;4.43;;;;;;;;;;5057989;28;20755;-85
2021/05/31 00:34:31;;;;;;;9.75;4.70;;;;;;;;;;5071427;28;20060;-85
2021/05/31 00:37:05;;;;;;;12.95;4.78;;;;;;;;;;5073324;28;20136;-85
2021/05/31 00:39:32;;;;;;;9.75;5.07;;;;;;;;;;5052728;28;20099;-84
2021/05/31 00:42:00;;;;;;;8.02;4.65;;;;;;;;;;5066085;28;20132;-83
2021/05/31 00:44:28;;;;;;;8.23;4.60;;;;;;;;;;5070527;28;20060;-84
2021/05/31 00:46:55;;;;;;;13.43;4.85;;;;;;;;;;5062631;28;20048;-84
2021/05/31 00:49:24;;;;;;;9.82;4.40;;;;;;;;;;5071056;28;20049;-84
2021/05/31 00:51:51;;;;;;;8.35;4.43;;;;;;;;;;5067656;28;20473;-84
2021/05/31 00:54:21;;;;;;;7.90;4.55;;;;;;;;;;5068363;28;20104;-83
2021/05/31 00:56:48;;;;;;;9.18;4.10;;;;;;;;;;5058921;28;20063;-84
2021/05/31 00:59:16;;;;;;;7.05;4.15;;;;;;;;;;5064244;28;20106;-83
2021/05/31 01:01:43;;;;;;;10.07;4.55;;;;;;;;;;5065934;28;20058;-83
2021/05/31 01:04:10;;;;;;;8.82;4.47;;;;;;;;;;5051301;28;20057;-83
2021/05/31 01:06:40;;;;;;;10.20;4.65;;;;;;;;;;5068388;28;20139;-84
2021/05/31 01:09:09;;;;;;;7.50;4.40;;;;;;;;;;5067625;28;20158;-83
2021/05/31 01:11:42;;;;;;;9.20;4.43;;;;;;;;;;5064669;28;20056;-83
2021/05/31 01:14:14;;;;;;;14.85;4.97;;;;;;;;;;5066248;28;20045;-84
2021/05/31 01:16:45;;;;;;;9.93;4.45;;;;;;;;;;5070096;28;20072;-82
2021/05/31 01:19:14;;;;;;;9.55;4.75;;;;;;;;;;5070881;28;20534;-83
2021/05/31 01:22:00;;;;;;;9.88;4.88;;;;;;;;;;5071817;28;20056;-83
2021/05/31 01:24:38;;;;;;;10.10;4.38;;;;;;;;;;5055721;28;20134;-82
2021/05/31 01:27:10;;;;;;;17.05;7.80;;;;;;;;;;5057735;28;20092;-83
2021/05/31 01:29:41;;;;;;;9.27;4.85;;;;;;;;;;5070756;28;20044;-83
2021/05/31 01:32:10;;;;;;;9.82;4.57;;;;;;;;;;5071382;28;20147;-83
2021/05/31 01:34:37;;;;;;;10.25;4.72;;;;;;;;;;5071736;28;20140;-82
2021/05/31 01:37:04;;;;;;;11.68;5.00;;;;;;;;;;5072166;28;20055;-83
2021/05/31 01:39:33;;;;;;;9.80;5.10;;;;;;;;;;5070041;28;20048;-83
2021/05/31 01:42:00;;;;;;;16.83;5.05;;;;;;;;;;5067559;28;20075;-82
2021/05/31 01:44:28;;;;;;;13.10;4.60;;;;;;;;;;5069905;28;20131;-82
2021/05/31 01:46:55;;;;;;;22.38;4.82;;;;;;;;;;5063047;28;20139;-82
2021/05/31 01:49:23;;;;;;;9.75;4.03;;;;;;;;;;5055810;28;20732;-82
2021/05/31 01:51:50;;;;;;;10.88;4.35;;;;;;;;;;5071229;28;20139;-82
2021/05/31 01:54:18;;;;;;;7.47;4.65;;;;;;;;;;5068242;28;20075;-83
2021/05/31 01:56:46;;;;;;;10.95;5.15;;;;;;;;;;5063196;28;20560;-82
2021/05/31 01:59:15;;;;;;;9.98;4.65;;;;;;;;;;5072637;28;20548;-82
2021/05/31 02:01:42;;;;;;;10.63;5.47;;;;;;;;;;5056464;28;20765;-82
2021/05/31 02:04:09;;;;;;;9.23;5.45;;;;;;;;;;5068900;28;20068;-83
2021/05/31 02:06:37;;;;;;;14.93;5.55;;;;;;;;;;5056822;28;20084;-82
2021/05/31 02:09:05;;;;;;;8.50;4.75;;;;;;;;;;5067345;28;20499;-82
2021/05/31 02:11:42;;;;;;;15.95;6.25;;;;;;;;;;5056999;28;20044;-82
2021/05/31 02:14:12;;;;;;;10.10;5.13;;;;;;;;;;5079254;28;20045;-82
2021/05/31 02:16:50;;;;;;;11.25;5.43;;;;;;;;;;5059898;28;20819;-82
2021/05/31 02:19:19;;;;;;;13.25;5.65;;;;;;;;;;5062399;28;20049;-82
2021/05/31 02:21:50;;;;;;;10.55;5.07;;;;;;;;;;5049404;28;20049;-82
2021/05/31 02:24:19;;;;;;;11.25;5.07;;;;;;;;;;5068736;28;20127;-82
2021/05/31 02:26:48;;;;;;;11.52;5.20;;;;;;;;;;5062028;28;20048;-83
2021/05/31 02:29:15;;;;;;;9.82;5.30;;;;;;;;;;5070313;28;20076;-82
2021/05/31 02:31:42;;;;;;;15.25;5.90;;;;;;;;;;5069266;28;20135;-77
2021/05/31 02:34:10;;;;;;;11.65;5.57;;;;;;;;;;5048667;28;20044;-77
2021/05/31 02:36:38;;;;;;;9.95;5.53;;;;;;;;;;5064187;28;20147;-77
2021/05/31 02:39:06;;;;;;;9.40;5.47;;;;;;;;;;5066504;28;20052;-76
2021/05/31 02:41:33;;;;;;;13.02;5.22;;;;;;;;;;5067154;28;20056;-76
2021/05/31 02:44:00;;;;;;;13.30;5.35;;;;;;;;;;5068809;28;20567;-76
2021/05/31 02:46:27;;;;;;;15.05;5.50;;;;;;;;;;5057504;28;20069;-77
2021/05/31 02:48:55;;;;;;;10.68;5.63;;;;;;;;;;5060803;28;20056;-76
2021/05/31 02:51:24;;;;;;;17.23;5.85;;;;;;;;;;5066235;28;20112;-76
2021/05/31 02:53:51;;;;;;;12.25;5.43;;;;;;;;;;5068864;28;20079;-76
2021/05/31 02:56:18;;;;;;;13.95;6.07;;;;;;;;;;5062091;28;20072;-76
2021/05/31 02:58:46;;;;;;;11.75;5.03;;;;;;;;;;5060139;28;20053;-76
2021/05/31 03:01:15;;;;;;;13.63;5.82;;;;;;;;;;5061595;28;20131;-76
2021/05/31 03:03:44;;;;;;;10.27;5.63;;;;;;;;;;5067016;28;20053;-76
2021/05/31 03:06:13;;;;;;;10.85;5.15;;;;;;;;;;5050188;28;20767;-76
2021/05/31 03:08:46;;;;;;;10.82;5.15;;;;;;;;;;5069156;28;20056;-76
2021/05/31 03:11:14;;;;;;;11.63;5.53;;;;;;;;;;5063790;28;20611;-76
2021/05/31 03:13:45;;;;;;;10.40;5.25;;;;;;;;;;5066769;28;20939;-76
2021/05/31 03:16:14;;;;;;;10.32;5.50;;;;;;;;;;5062748;28;20044;-76
2021/05/31 03:18:42;;;;;;;11.85;6.00;;;;;;;;;;5059714;28;20109;-76
2021/05/31 03:21:10;;;;;;;11.30;5.75;;;;;;;;;;5050819;28;20973;-77
2021/05/31 03:23:37;;;;;;;11.60;5.60;;;;;;;;;;5061034;28;20135;-77
2021/05/31 03:26:04;;;;;;;10.93;5.25;;;;;;;;;;5058493;28;20084;-76
2021/05/31 03:28:31;;;;;;;12.32;5.60;;;;;;;;;;5063462;28;20581;-76
2021/05/31 03:30:58;;;;;;;10.90;5.35;;;;;;;;;;5055302;28;20041;-76
2021/05/31 03:33:26;;;;;;;14.88;5.78;;;;;;;;;;5070313;28;20053;-76
2021/05/31 03:35:57;;;;;;;12.43;5.07;;;;;;;;;;5065912;28;20135;-76
2021/05/31 03:38:24;;;;;;;16.77;5.53;;;;;;;;;;5070196;28;20083;-76
2021/05/31 03:40:52;;;;;;;11.27;5.13;;;;;;;;;;5066091;28;20831;-76
2021/05/31 03:43:19;;;;;;;12.40;5.35;;;;;;;;;;5069988;28;20075;-77
2021/05/31 03:45:46;;;;;;;11.05;5.53;;;;;;;;;;5065991;28;20135;-77
2021/05/31 03:48:15;;;;;;;17.67;5.97;;;;;;;;;;5066026;28;20132;-77
2021/05/31 03:50:42;;;;;;;12.98;5.85;;;;;;;;;;5071140;28;20124;-77
2021/05/31 03:53:09;;;;;;;12.13;6.03;;;;;;;;;;5071605;28;20127;-77
2021/05/31 03:55:36;;;;;;;16.02;6.68;;;;;;;;;;5064499;28;20037;-76
2021/05/31 03:58:04;;;;;;;10.73;6.28;;;;;;;;;;5059446;28;20119;-77
2021/05/31 04:00:31;;;;;;;16.63;6.20;;;;;;;;;;5071391;28;20987;-77
2021/05/31 04:02:58;;;;;;;15.07;5.70;;;;;;;;;;5069204;28;20082;-77
2021/05/31 04:05:30;;;;;;;13.30;6.35;;;;;;;;;;5061189;28;20930;-77
2021/05/31 04:13:29;;;;;;;11.52;6.47;;;;;;;;;;5068171;28;20854;-77
2021/05/31 04:15:57;;;;;;;11.50;6.78;;;;;;;;;;5065542;28;20788;-77
2021/05/31 04:18:24;;;;;;;13.32;7.18;;;;;;;;;;5071963;28;20123;-76
2021/05/31 04:20:52;;;;;;;13.50;6.68;;;;;;;;;;5073526;28;20071;-83
2021/05/31 04:23:21;;;;;;;18.20;7.32;;;;;;;;;;5055624;28;20052;-83
2021/05/31 04:25:48;;;;;;;11.05;6.68;;;;;;;;;;5065659;28;20136;-83
2021/05/31 04:28:16;;;;;;;18.13;7.07;;;;;;;;;;5060711;28;20052;-83
2021/05/31 04:30:43;;;;;;;14.35;7.75;;;;;;;;;;5051586;28;20415;-83
2021/05/31 04:33:10;;;;;;;18.63;7.80;;;;;;;;;;5053306;28;20049;-84
2021/05/31 04:35:37;;;;;;;16.13;7.20;;;;;;;;;;5064682;28;20077;-84
2021/05/31 04:38:04;;;;;;;24.50;7.15;;;;;;;;;;5052163;28;20139;-83
2021/05/31 04:40:32;;;;;;;20.70;7.45;;;;;;;;;;5057657;28;20725;-83
2021/05/31 04:42:59;;;;;;;12.15;6.65;;;;;;;;;;5070453;28;20080;-84
2021/05/31 04:45:43;;;;;;;17.13;6.72;;;;;;;;;;5071246;28;20052;-84
2021/05/31 04:48:10;;;;;;;14.38;7.03;;;;;;;;;;5071397;28;20123;-84
2021/05/31 04:50:38;;;;;;;17.98;6.80;;;;;;;;;;5067860;28;20095;-84
2021/05/31 04:53:08;;;;;;;18.02;6.90;;;;;;;;;;5060069;28;20546;-86
2021/05/31 04:55:37;;;;;;;21.50;7.13;;;;;;;;;;5079617;28;20074;-87
2021/05/31 04:58:04;;;;;;;32.95;8.00;;;;;;;;;;5063934;28;20157;-85
2021/05/31 05:00:31;;;;;;;19.00;6.35;;;;;;;;;;5070861;28;20098;-86
2021/05/31 05:02:58;;;;;;;13.35;6.90;;;;;;;;;;5066690;28;20084;-86
2021/05/31 05:05:25;;;;;;;17.45;6.95;;;;;;;;;;5069132;28;20131;-81
2021/05/31 05:07:53;;;;;;;26.27;7.18;;;;;;;;;;5071642;28;20102;-87
2021/05/31 05:10:21;;;;;;;12.82;5.75;;;;;;;;;;5057557;28;20087;-85
2021/05/31 05:12:50;;;;;;;32.65;6.85;;;;;;;;;;5070561;28;20826;-85
2021/05/31 05:15:19;;;;;;;16.52;6.05;;;;;;;;;;5068359;28;20072;-83
2021/05/31 05:17:46;;;;;;;13.70;6.40;;;;;;;;;;5071827;28;20622;-79
2021/05/31 05:20:15;;;;;;;16.55;6.35;;;;;;;;;;5071432;28;20057;-80
2021/05/31 05:22:43;;;;;;;14.90;5.97;;;;;;;;;;5071173;28;20072;-84
2021/05/31 05:25:11;;;;;;;16.25;5.82;;;;;;;;;;5064235;28;20086;-81
2021/05/31 05:27:38;;;;;;;15.00;6.03;;;;;;;;;;5068227;28;20696;-80
2021/05/31 05:30:06;;;;;;;16.52;6.80;;;;;;;;;;5070781;28;20110;-81
2021/05/31 05:32:34;;;;;;;13.65;5.32;;;;;;;;;;5069571;28;20067;-78
2021/05/31 05:35:14;;;;;;;20.77;5.50;;;;;;;;;;5069051;28;20044;-77
2021/05/31 05:37:57;;;;;;;12.30;5.07;;;;;;;;;;5057916;28;20127;-78
2021/05/31 05:43:22;;;;;;;22.92;6.30;;;;;;;;;;5058948;28;20080;-76
2021/05/31 05:48:29;;;;;;;15.35;5.63;;;;;;;;;;5057293;28;20421;-77
2021/05/31 05:51:08;;;;;;;9.68;5.18;;;;;;;;;;5061172;28;20075;-77
2021/05/31 05:53:36;;;;;;;16.67;5.07;;;;;;;;;;5057473;28;20068;-77
2021/05/31 05:56:05;;;;;;;10.27;5.22;;;;;;;;;;5053514;28;20041;-77
2021/05/31 05:58:33;;;;;;;9.18;4.70;;;;;;;;;;5064291;28;20079;-77
2021/05/31 06:01:02;;;;;;;8.50;4.78;;;;;;;;;;5058438;28;20097;-77
2021/05/31 06:03:29;;;;;;;14.45;4.53;;;;;;;;;;5054281;28;20095;-77
2021/05/31 06:05:59;;;;;;;29.65;4.65;;;;;;;;;;5056988;28;20044;-78
2021/05/31 06:08:27;;;;;;;23.92;4.85;;;;;;;;;;5056625;28;20060;-77
2021/05/31 06:10:56;;;;;;;15.60;4.45;;;;;;;;;;5059083;28;20041;-78
2021/05/31 06:13:25;;;;;;;7.25;3.17;;;;;;;;;;5059758;28;20051;-77
2021/05/31 06:15:54;;;;;;;10.98;3.30;;;;;;;;;;5062155;28;20106;-78
2021/05/31 06:18:21;;;;;;;8.40;2.90;;;;;;;;;;5058575;28;20080;-78
2021/05/31 06:20:49;;;;;;;9.13;2.92;;;;;;;;;;5046991;28;20130;-78
2021/05/31 06:23:16;;;;;;;12.43;3.50;;;;;;;;;;5046698;28;20520;-78
2021/05/31 06:25:44;;;;;;;4.88;2.33;;;;;;;;;;5058938;28;20743;-78
2021/05/31 06:28:13;;;;;;;7.53;2.63;;;;;;;;;;5050910;28;20462;-78
2021/05/31 06:30:41;;;;;;;6.45;2.70;;;;;;;;;;5047970;28;20083;-79
2021/05/31 06:33:10;;;;;;;4.35;2.40;;;;;;;;;;5048463;28;20048;-79
2021/05/31 06:35:38;;;;;;;9.18;2.80;;;;;;;;;;5048287;28;20436;-79
2021/05/31 06:38:07;;;;;;;25.90;3.65;;;;;;;;;;5049467;28;20063;-79
2021/05/31 06:40:35;;;;;;;11.82;3.10;;;;;;;;;;5046618;28;20052;-79
2021/05/31 06:43:03;;;;;;;9.02;2.67;;;;;;;;;;5050144;28;20049;-79
2021/05/31 06:45:31;;;;;;;8.48;2.78;;;;;;;;;;5053167;28;20064;-79
2021/05/31 06:48:00;;;;;;;7.38;2.45;;;;;;;;;;5060217;28;20135;-79
2021/05/31 06:50:30;;;;;;;7.35;2.45;;;;;;;;;;5068600;28;20056;-79
2021/05/31 06:52:58;;;;;;;10.90;2.83;;;;;;;;;;5070594;28;20428;-79
2021/05/31 06:55:27;;;;;;;8.40;2.35;;;;;;;;;;5065509;28;20059;-80
2021/05/31 06:57:56;;;;;;;5.72;2.15;;;;;;;;;;5063850;28;20052;-80
2021/05/31 07:00:27;;;;;;;5.78;2.00;;;;;;;;;;5070365;28;20543;-80
2021/05/31 07:02:58;;;;;;;7.88;2.55;;;;;;;;;;5067715;28;20105;-79
2021/05/31 07:05:25;;;;;;;4.18;2.22;;;;;;;;;;5069252;28;20591;-80
2021/05/31 07:07:53;;;;;;;9.07;2.08;;;;;;;;;;5070400;28;20095;-80
2021/05/31 07:10:27;;;;;;;2.58;1.90;;;;;;;;;;5073264;28;20095;-80
2021/05/31 07:12:55;;;;;;;2.75;1.80;;;;;;;;;;5069147;28;20087;-80
2021/05/31 07:15:24;;;;;;;2.97;2.00;;;;;;;;;;5068205;28;20133;-79
2021/05/31 07:17:53;;;;;;;6.25;2.22;;;;;;;;;;5062424;28;20059;-80
2021/05/31 07:20:21;;;;;;;5.82;1.95;;;;;;;;;;5072440;28;20056;-79
2021/05/31 07:22:48;;;;;;;7.25;1.98;;;;;;;;;;5072157;28;20139;-80
2021/05/31 07:25:16;;;;;;;3.08;1.85;;;;;;;;;;5065846;28;20087;-80
2021/05/31 07:27:44;;;;;;;9.68;2.40;;;;;;;;;;5065730;28;20088;-82
2021/05/31 07:30:13;;;;;;;3.33;1.45;;;;;;;;;;5073299;28;20052;-81
2021/05/31 07:32:40;;;;;;;5.00;2.00;;;;;;;;;;5072391;28;20087;-81
2021/05/31 07:35:09;;;;;;;4.07;1.95;;;;;;;;;;5072226;28;20041;-81
2021/05/31 07:37:37;;;;;;;4.85;2.00;;;;;;;;;;5073240;28;20074;-81
2021/05/31 07:40:06;;;;;;;7.15;1.83;;;;;;;;;;5072896;28;20832;-81
2021/05/31 07:42:33;;;;;;;4.03;1.85;;;;;;;;;;5073847;28;20151;-81
2021/05/31 07:45:01;;;;;;;7.70;1.60;;;;;;;;;;5073519;28;20079;-81
2021/05/31 07:47:28;;;;;;;3.15;1.60;;;;;;;;;;5064140;28;20072;-81
2021/05/31 07:49:55;;;;;;;6.53;1.80;;;;;;;;;;5074146;28;20057;-81
2021/05/31 07:52:28;;;;;;;4.93;1.55;;;;;;;;;;5073833;28;20571;-81
2021/05/31 07:54:56;;;;;;;4.65;2.22;;;;;;;;;;5072409;28;20494;-81
2021/05/31 07:57:26;;;;;;;2.53;1.40;;;;;;;;;;5063995;28;20060;-81
2021/05/31 08:00:23;;;;;;;3.47;1.60;;;;;;;;;;5072129;28;20159;-80
2021/05/31 08:02:52;;;;;;;17.85;1.67;;;;;;;;;;5070696;28;20075;-80
2021/05/31 08:05:22;;;;;;;4.05;1.58;;;;;;;;;;5071088;28;20051;-80
2021/05/31 08:07:50;;;;;;;3.65;1.83;;;;;;;;;;5071765;28;20060;-80
2021/05/31 08:10:19;;;;;;;3.88;1.88;;;;;;;;;;5072073;28;20084;-80
2021/05/31 08:12:53;;;;;;;4.53;2.13;;;;;;;;;;5072802;28;20158;-80
2021/05/31 08:15:23;;;;;;;5.38;1.80;;;;;;;;;;5069521;28;20053;-80
2021/05/31 08:17:52;;;;;;;5.95;2.17;;;;;;;;;;5061422;28;20155;-80
2021/05/31 08:20:20;;;;;;;9.48;2.30;;;;;;;;;;5070121;28;20131;-80
2021/05/31 08:22:49;;;;;;;3.03;1.58;;;;;;;;;;5070734;28;20560;-80
2021/05/31 08:25:19;;;;;;;5.40;2.47;;;;;;;;;;5070512;28;20048;-79
2021/05/31 08:27:47;;;;;;;3.42;1.58;;;;;;;;;;5055023;28;20145;-79
2021/05/31 08:30:17;;;;;;;4.43;2.15;;;;;;;;;;5050433;28;20052;-81
2021/05/31 08:32:47;;;;;;;2.45;1.38;;;;;;;;;;5050102;28;20055;-80
2021/05/31 08:35:15;;;;;;;12.48;1.70;;;;;;;;;;5049992;28;20497;-80
2021/05/31 08:37:45;;;;;;;4.70;1.98;;;;;;;;;;5051182;28;20129;-81
2021/05/31 08:40:14;;;;;;;7.70;1.73;;;;;;;;;;5049633;28;20044;-80
2021/05/31 08:42:42;;;;;;;8.45;1.20;;;;;;;;;;5050951;28;20092;-80
2021/05/31 08:45:12;;;;;;;9.05;1.80;;;;;;;;;;5053387;28;20061;-80
2021/05/31 08:47:42;;;;;;;4.43;1.70;;;;;;;;;;5064061;28;20055;-87
2021/05/31 08:50:17;;;;;;;8.63;1.88;;;;;;;;;;5071593;28;20106;-87
2021/05/31 08:52:46;;;;;;;3.85;1.80;;;;;;;;;;5072770;28;20045;-85
2021/05/31 08:55:43;;;;;;;8.70;1.80;;;;;;;;;;5062042;28;20068;-84
2021/05/31 08:58:12;;;;;;;4.53;1.75;;;;;;;;;;5065229;28;20100;-79
2021/05/31 09:00:39;;;;;;;3.97;1.85;;;;;;;;;;5068475;28;20559;-79
2021/05/31 09:03:11;;;;;;;4.38;1.60;;;;;;;;;;5067174;28;20139;-79
2021/05/31 09:05:43;;;;;;;11.30;1.75;;;;;;;;;;5065551;28;20052;-80
2021/05/31 09:08:11;;;;;;;10.80;1.70;;;;;;;;;;5067043;28;20056;-78
2021/05/31 09:10:45;;;;;;;8.38;2.28;;;;;;;;;;5066847;28;20067;-79
2021/05/31 09:13:14;;;;;;;15.38;2.90;;;;;;;;;;5067925;28;20079;-79
2021/05/31 09:15:44;;;;;;;21.65;2.30;;;;;;;;;;5055962;28;20052;-79
2021/05/31 09:18:12;;;;;;;13.18;2.50;;;;;;;;;;5055217;28;20120;-83
2021/05/31 09:20:39;;;;;;;8.85;2.10;;;;;;;;;;5072125;28;20664;-83
2021/05/31 09:23:06;;;;;;;2.25;1.55;;;;;;;;;;5071967;28;20521;-83
2021/05/31 09:25:35;;;;;;;4.47;1.42;;;;;;;;;;5055498;28;20147;-83
2021/05/31 09:28:04;;;;;;;8.20;1.85;;;;;;;;;;5052620;28;20049;-84
2021/05/31 09:30:45;;;;;;;5.82;2.05;;;;;;;;;;5051885;28;20450;-84
2021/05/31 09:33:15;;;;;;;2.40;1.75;;;;;;;;;;5051628;28;20052;-83
2021/05/31 09:35:51;;;;;;;13.70;2.15;;;;;;;;;;5048163;28;20081;-83
2021/05/31 09:38:19;;;;;;;8.75;2.10;;;;;;;;;;5049017;28;20051;-84
2021/05/31 09:40:50;;;;;;;4.82;2.22;;;;;;;;;;5051048;28;20072;-84
2021/05/31 09:43:17;;;;;;;6.68;2.60;;;;;;;;;;5050703;28;20152;-83
2021/05/31 09:45:48;;;;;;;6.70;1.80;;;;;;;;;;5057177;28;20286;-83
2021/05/31 09:48:32;;;;;;;3.53;2.05;;;;;;;;;;5059707;28;20631;-83
2021/05/31 09:51:01;;;;;;;5.68;2.28;;;;;;;;;;5070083;28;20148;-84
2021/05/31 09:53:35;;;;;;;12.10;2.45;;;;;;;;;;5070914;28;20136;-83
2021/05/31 09:56:17;;;;;;;8.33;2.50;;;;;;;;;;5060715;28;20049;-83
2021/05/31 09:58:55;;;;;;;7.70;2.47;;;;;;;;;;5049761;28;20331;-84
2021/05/31 10:01:41;;;;;;;10.73;2.67;;;;;;;;;;5060337;28;20434;-84
2021/05/31 10:06:54;;;;;;;2.88;1.95;;;;;;;;;;5068697;28;20106;-80
2021/05/31 10:09:21;;;;;;;5.75;2.83;;;;;;;;;;5068494;28;20083;-80
2021/05/31 10:11:50;;;;;;;6.78;2.28;;;;;;;;;;5063446;28;20129;-81
2021/05/31 10:14:18;;;;;;;6.18;2.67;;;;;;;;;;5022056;28;20052;-80
2021/05/31 10:16:46;;;;;;;17.30;3.47;;;;;;;;;;5062182;28;20132;-79
2021/05/31 10:19:15;;;;;;;6.30;2.63;;;;;;;;;;5058765;28;20056;-80
2021/05/31 10:21:42;;;;;;;136.75;13.75;;;;;;;;;;5069251;28;20480;-80
2021/05/31 10:24:10;;;;;;;3.20;2.30;;;;;;;;;;5060321;28;20052;-80
2021/05/31 10:26:37;;;;;;;9.55;3.10;;;;;;;;;;5064776;28;20151;-79
2021/05/31 10:29:09;;;;;;;7.18;2.65;;;;;;;;;;5067082;28;20052;-81
2021/05/31 10:31:44;;;;;;;6.32;2.95;;;;;;;;;;5075948;28;20098;-82
2021/05/31 10:34:22;;;;;;;5.00;3.20;;;;;;;;;;5055651;28;20677;-90
2021/05/31 10:36:51;;;;;;;6.80;2.58;;;;;;;;;;5051244;28;20091;-86
2021/05/31 10:39:28;;;;;;;8.82;3.03;;;;;;;;;;5050159;28;20099;-86
2021/05/31 10:42:05;;;;;;;3.88;2.55;;;;;;;;;;5051184;28;20592;-88
2021/05/31 10:44:33;;;;;;;5.03;2.70;;;;;;;;;;5049824;28;20084;-85
2021/05/31 10:47:12;;;;;;;7.10;2.60;;;;;;;;;;5068526;28;20453;-84
2021/05/31 10:49:39;;;;;;;5.80;2.60;;;;;;;;;;5051788;28;20124;-86
2021/05/31 10:52:18;;;;;;;4.78;2.55;;;;;;;;;;5050821;28;20041;-85
2021/05/31 10:54:45;;;;;;;11.25;2.70;;;;;;;;;;5049043;28;20055;-84
2021/05/31 10:57:12;;;;;;;4.95;2.60;;;;;;;;;;5049174;28;20049;-83
2021/05/31 10:59:51;;;;;;;4.43;2.28;;;;;;;;;;5052243;28;20787;-84
2021/05/31 11:02:26;;;;;;;4.95;2.60;;;;;;;;;;5064072;28;20044;-84
2021/05/31 11:05:05;;;;;;;7.97;2.70;;;;;;;;;;5061728;28;20491;-84
2021/05/31 11:07:34;;;;;;;6.28;2.53;;;;;;;;;;5050398;28;20085;-84
2021/05/31 11:10:01;;;;;;;4.47;2.42;;;;;;;;;;5049381;28;20087;-83
2021/05/31 11:12:32;;;;;;;5.35;2.60;;;;;;;;;;5062748;28;20528;-84
2021/05/31 11:15:07;;;;;;;9.77;2.83;;;;;;;;;;5068962;28;20135;-83
2021/05/31 11:17:46;;;;;;;4.03;2.45;;;;;;;;;;5058685;28;20461;-84
2021/05/31 11:23:22;;;;;;;7.80;2.85;;;;;;;;;;5087446;28;20492;-86
2021/05/31 11:25:50;;;;;;;10.23;3.10;;;;;;;;;;5088012;28;20051;-86
2021/05/31 11:28:24;;;;;;;5.00;2.70;;;;;;;;;;5088023;28;20083;-87
2021/05/31 11:30:51;;;;;;;9.27;2.93;;;;;;;;;;5088617;28;20044;-86
2021/05/31 11:33:19;;;;;;;5.85;2.75;;;;;;;;;;5088883;28;20493;-87
2021/05/31 11:35:47;;;;;;;5.07;2.60;;;;;;;;;;5086687;28;20052;-87
2021/05/31 11:38:19;;;;;;;5.88;2.60;;;;;;;;;;5087540;28;20098;-87
2021/05/31 11:40:47;;;;;;;4.20;2.47;;;;;;;;;;5087832;28;20052;-87
2021/05/31 11:43:15;;;;;;;4.38;2.30;;;;;;;;;;5088162;28;20142;-87
2021/05/31 11:45:45;;;;;;;4.30;2.40;;;;;;;;;;5089678;28;20048;-88
2021/05/31 11:48:15;;;;;;;5.47;2.75;;;;;;;;;;5089405;28;20060;-88
2021/05/31 11:50:43;;;;;;;9.45;2.63;;;;;;;;;;5085917;28;20175;-89
2021/05/31 11:53:16;;;;;;;11.05;2.60;;;;;;;;;;5089071;28;20048;-88
2021/05/31 11:55:45;;;;;;;5.70;2.67;;;;;;;;;;5091792;28;20048;-88
2021/05/31 11:58:14;;;;;;;4.10;2.58;;;;;;;;;;5091261;28;20418;-88
2021/05/31 12:00:42;;;;;;;4.97;2.83;;;;;;;;;;5091294;28;20079;-88
2021/05/31 12:03:21;;;;;;;6.22;2.95;;;;;;;;;;5091680;28;20060;-87
2021/05/31 12:05:55;;;;;;;4.88;2.50;;;;;;;;;;5091770;28;20155;-88
2021/05/31 12:08:25;;;;;;;4.97;2.60;;;;;;;;;;5091217;28;20131;-88
2021/05/31 12:10:52;;;;;;;3.95;2.40;;;;;;;;;;5091199;28;20088;-88
2021/05/31 12:13:28;;;;;;;7.82;2.95;;;;;;;;;;5090153;28;20056;-88
2021/05/31 12:16:11;;;;;;;6.82;2.70;;;;;;;;;;5090170;28;20125;-88
2021/05/31 12:18:38;;;;;;;15.93;3.38;;;;;;;;;;5090258;28;20802;-87
2021/05/31 12:21:06;;;;;;;7.72;3.00;;;;;;;;;;5090786;28;20220;-87
2021/05/31 12:23:34;;;;;;;10.38;3.85;;;;;;;;;;5091168;28;20407;-88
2021/05/31 12:26:04;;;;;;;12.40;3.15;;;;;;;;;;5092813;28;20051;-88
2021/05/31 12:28:33;;;;;;;8.85;2.88;;;;;;;;;;5091948;28;20083;-88
2021/05/31 12:31:01;;;;;;;8.48;3.13;;;;;;;;;;5090660;28;20098;-86
2021/05/31 12:33:28;;;;;;;7.68;3.47;;;;;;;;;;5091720;28;20052;-87
2021/05/31 12:35:55;;;;;;;10.30;2.85;;;;;;;;;;5090665;28;20591;-87
2021/05/31 12:38:25;;;;;;;7.10;2.92;;;;;;;;;;5090943;28;20135;-86
2021/05/31 12:40:54;;;;;;;7.22;2.67;;;;;;;;;;5090500;28;20043;-86
2021/05/31 12:43:32;;;;;;;6.40;3.63;;;;;;;;;;5089908;28;20485;-86
2021/05/31 12:46:01;;;;;;;4.40;3.10;;;;;;;;;;5090454;28;20048;-87
2021/05/31 12:48:31;;;;;;;8.48;3.10;;;;;;;;;;5090142;28;20500;-87
2021/05/31 12:51:12;;;;;;;24.45;3.80;;;;;;;;;;5090590;28;20076;-86
2021/05/31 12:53:40;;;;;;;8.13;3.20;;;;;;;;;;5089568;28;20083;-87
2021/05/31 12:56:07;;;;;;;6.55;2.90;;;;;;;;;;5090447;28;20155;-86
2021/05/31 12:59:08;;;;;;;7.38;3.90;;;;;;;;;;5091365;28;20048;-87
2021/05/31 13:01:36;;;;;;;5.47;2.78;;;;;;;;;;5090139;28;20131;-86
2021/05/31 13:04:04;;;;;;;8.85;3.10;;;;;;;;;;5088717;28;20075;-86
2021/05/31 13:06:36;;;;;;;13.50;3.00;;;;;;;;;;5088569;28;20094;-86
2021/05/31 13:09:04;;;;;;;12.05;3.45;;;;;;;;;;5089689;28;20048;-87
2021/05/31 13:11:39;;;;;;;18.13;3.20;;;;;;;;;;5088225;28;20087;-87
2021/05/31 13:14:21;;;;;;;8.02;3.13;;;;;;;;;;5087855;28;20052;-86
2021/05/31 13:17:03;;;;;;;9.98;3.47;;;;;;;;;;5088789;28;20127;-86
2021/05/31 13:19:32;;;;;;;5.97;2.90;;;;;;;;;;5089008;28;20044;-87
2021/05/31 13:22:00;;;;;;;6.65;3.65;;;;;;;;;;5087678;28;20070;-86
2021/05/31 13:24:28;;;;;;;11.07;3.85;;;;;;;;;;5086985;28;20146;-86
2021/05/31 13:26:56;;;;;;;17.60;3.78;;;;;;;;;;5086095;28;20143;-86
2021/05/31 13:29:24;;;;;;;12.20;3.33;;;;;;;;;;5087850;28;20094;-86
2021/05/31 13:31:52;;;;;;;8.13;3.00;;;;;;;;;;5086043;28;20162;-86
2021/05/31 13:34:19;;;;;;;8.07;3.03;;;;;;;;;;5088823;28;20074;-86
2021/05/31 13:36:46;;;;;;;10.45;3.45;;;;;;;;;;5090974;28;20131;-86
2021/05/31 13:39:18;;;;;;;5.75;3.17;;;;;;;;;;5090513;28;20083;-86
2021/05/31 13:41:54;;;;;;;10.10;4.07;;;;;;;;;;5089683;28;20098;-86
2021/05/31 13:44:22;;;;;;;5.30;3.03;;;;;;;;;;5089259;28;20147;-86
2021/05/31 13:46:50;;;;;;;37.75;7.55;;;;;;;;;;5090564;28;20139;-86
2021/05/31 13:49:18;;;;;;;5.53;3.25;;;;;;;;;;5089396;28;20119;-86
2021/05/31 13:51:47;;;;;;;41.65;5.05;;;;;;;;;;5090774;28;20139;-87
2021/05/31 13:54:14;;;;;;;22.15;4.18;;;;;;;;;;5088887;28;20813;-86
2021/05/31 13:56:44;;;;;;;10.73;3.33;;;;;;;;;;5089183;28;20048;-87
2021/05/31 13:59:11;;;;;;;18.55;4.10;;;;;;;;;;5088838;28;20131;-86
2021/05/31 14:01:40;;;;;;;9.10;4.03;;;;;;;;;;5090815;28;20086;-87
2021/05/31 14:04:09;;;;;;;22.73;4.75;;;;;;;;;;5089245;28;20043;-86
2021/05/31 14:06:37;;;;;;;8.07;3.42;;;;;;;;;;5088946;28;20450;-86
2021/05/31 14:09:05;;;;;;;11.57;4.07;;;;;;;;;;5090144;28;20191;-87
2021/05/31 14:11:32;;;;;;;9.82;3.72;;;;;;;;;;5089011;28;20403;-86
2021/05/31 14:14:01;;;;;;;5.72;3.60;;;;;;;;;;5089891;28;20127;-86
2021/05/31 14:16:30;;;;;;;9.82;3.45;;;;;;;;;;5088316;28;20083;-86
2021/05/31 14:19:15;;;;;;;8.80;4.13;;;;;;;;;;5088715;28;20901;-86
2021/05/31 14:21:42;;;;;;;9.52;4.32;;;;;;;;;;5088757;28;20131;-87
2021/05/31 14:24:10;;;;;;;8.27;3.67;;;;;;;;;;5088598;28;20055;-87
2021/05/31 14:26:39;;;;;;;7.43;3.75;;;;;;;;;;5090277;28;20170;-86
2021/05/31 14:29:07;;;;;;;10.02;3.40;;;;;;;;;;5089090;28;20528;-86
2021/05/31 14:31:34;;;;;;;12.80;4.60;;;;;;;;;;5088886;28;20473;-86
2021/05/31 14:34:01;;;;;;;8.63;3.75;;;;;;;;;;5088155;28;20052;-86
2021/05/31 14:36:29;;;;;;;16.92;4.32;;;;;;;;;;5088949;28;20048;-86
2021/05/31 14:38:56;;;;;;;8.77;4.00;;;;;;;;;;5088141;28;20087;-86
2021/05/31 14:41:23;;;;;;;6.55;3.78;;;;;;;;;;5088355;28;20123;-86
2021/05/31 14:43:56;;;;;;;26.98;5.43;;;;;;;;;;5088263;28;20139;-86
2021/05/31 14:46:25;;;;;;;8.65;3.72;;;;;;;;;;5088911;28;20082;-86
2021/05/31 14:48:52;;;;;;;17.17;4.05;;;;;;;;;;5089091;28;20124;-86
2021/05/31 14:51:23;;;;;;;6.47;3.70;;;;;;;;;;5088449;28;20086;-86
2021/05/31 14:53:50;;;;;;;11.45;4.03;;;;;;;;;;5088678;28;20094;-87
2021/05/31 14:56:17;;;;;;;7.93;3.92;;;;;;;;;;5088710;28;20044;-87
2021/05/31 14:58:45;;;;;;;11.55;3.90;;;;;;;;;;5088460;28;20087;-87
2021/05/31 15:01:12;;;;;;;9.98;3.92;;;;;;;;;;5088602;28;20076;-87
2021/05/31 15:03:39;;;;;;;10.98;4.07;;;;;;;;;;5087836;28;20056;-87
2021/05/31 15:06:07;;;;;;;7.72;4.00;;;;;;;;;;5088170;28;20135;-87
2021/05/31 15:08:34;;;;;;;9.85;3.88;;;;;;;;;;5088459;28;20090;-87
2021/05/31 15:11:01;;;;;;;9.10;3.35;;;;;;;;;;5087746;28;20055;-87